Airfield :
LOGIN :

Register | Disclaimer

   EN    FR    IT 

 










Legend :    VFR   Marginal VFR   IFR   Intensive IFR   Very Intensive IFR
Visi :
Ceiling :
>= 8 km
>= 3000ft
5 to 8 km
1000 to 3000 ft
1500m to 5 km
500 to 1000 ft
800 to 1500m
200 to 500 ft
< 800m
< 200 ft
Symbols :   Thunderstorms  Fog  Heavy snow  Heavy precipitations  Wind > 20 kt
SIGMETs :     Misc.  Thunderstorms  Icing  Turbulence  Mountain Waves  Volcanic Ashes






- Airport Elevation : 319 ft


EIME - Casement Air Base

CURRENT METAR :
  • 070800Z 23012KT 9999 FEW018 BKN050 BKN090 12/10 Q1012

EXPIRED METARs :
  • 070730Z 24015KT 9999 FEW015 SCT040 BKN090 12/10 Q1012
  • 070700Z 24015KT 9999 FEW013 BKN050 11/08 Q1012
  • 070600Z 22019KT 9999 -RA FEW010 BKN023 13/11 Q1011

TAF TAF EIME
Valid from the 07 at 06:00 until the 07 at 15:00 UTC


070500Z 0706/0715 22020G30KT 9999 FEW020 BKN030
TEMPO 0706/0715 -SHRA SCT018CB
PROB30
TEMPO 0706/0708 4000 SHRA
BECMG 0707/0709 26015KT
TEMPO 0709/0715 26017G28KT



MET'MAP, your aeronautical weather chart ! - Copyright ORBIFLY December 2007 - Disclaimer

ORBIFLY MET'MAP TEAM :

Programming & Development : Alexandra Zaïnal
Original concept : Baudouin d'Aumeries
Technical & hardware support : Manuel Goepfert
Assistance : Marc-Olivier Méhu




SOURCES & CREDITS :

   NOAA